sensor_id;sensor_type;location;lat;lon;timestamp;temperature;humidity
25504;DHT22;13410;52.114;5.718;2023-02-28T00:00:11;5.20;99.90
25504;DHT22;13410;52.114;5.718;2023-02-28T00:02:39;5.20;99.90
25504;DHT22;13410;52.114;5.718;2023-02-28T00:05:06;5.40;99.90
25504;DHT22;13410;52.114;5.718;2023-02-28T00:07:32;5.40;99.90
25504;DHT22;13410;52.114;5.718;2023-02-28T00:09:58;5.40;99.90
25504;DHT22;13410;52.114;5.718;2023-02-28T00:12:24;5.40;99.90
25504;DHT22;13410;52.114;5.718;2023-02-28T00:14:51;5.50;99.90
25504;DHT22;13410;52.114;5.718;2023-02-28T00:17:17;5.60;99.90
25504;DHT22;13410;52.114;5.718;2023-02-28T00:19:50;5.70;99.90
25504;DHT22;13410;52.114;5.718;2023-02-28T00:22:17;5.70;99.90
25504;DHT22;13410;52.114;5.718;2023-02-28T00:24:43;5.70;99.90
25504;DHT22;13410;52.114;5.718;2023-02-28T00:27:10;5.70;99.90
25504;DHT22;13410;52.114;5.718;2023-02-28T00:29:35;5.70;99.90
25504;DHT22;13410;52.114;5.718;2023-02-28T00:32:01;5.80;99.90
25504;DHT22;13410;52.114;5.718;2023-02-28T00:34:27;6.00;99.90
25504;DHT22;13410;52.114;5.718;2023-02-28T00:36:53;6.00;99.90
25504;DHT22;13410;52.114;5.718;2023-02-28T00:39:18;6.10;99.90
25504;DHT22;13410;52.114;5.718;2023-02-28T00:41:44;5.90;99.90
25504;DHT22;13410;52.114;5.718;2023-02-28T00:44:10;5.80;99.90
25504;DHT22;13410;52.114;5.718;2023-02-28T00:46:36;5.80;99.90
25504;DHT22;13410;52.114;5.718;2023-02-28T00:49:01;5.70;99.90
25504;DHT22;13410;52.114;5.718;2023-02-28T00:51:27;5.70;99.90
25504;DHT22;13410;52.114;5.718;2023-02-28T00:53:52;5.80;99.90
25504;DHT22;13410;52.114;5.718;2023-02-28T00:56:19;5.90;99.90
25504;DHT22;13410;52.114;5.718;2023-02-28T00:58:44;6.00;99.90
25504;DHT22;13410;52.114;5.718;2023-02-28T01:01:10;6.00;99.90
25504;DHT22;13410;52.114;5.718;2023-02-28T01:03:35;6.10;99.90
25504;DHT22;13410;52.114;5.718;2023-02-28T01:06:01;6.20;99.90
25504;DHT22;13410;52.114;5.718;2023-02-28T01:08:27;6.30;99.90
25504;DHT22;13410;52.114;5.718;2023-02-28T01:10:52;6.40;99.90
25504;DHT22;13410;52.114;5.718;2023-02-28T01:13:19;6.40;99.90
25504;DHT22;13410;52.114;5.718;2023-02-28T01:15:53;6.40;99.90
25504;DHT22;13410;52.114;5.718;2023-02-28T01:18:20;6.50;99.90
25504;DHT22;13410;52.114;5.718;2023-02-28T01:20:46;6.60;99.90
25504;DHT22;13410;52.114;5.718;2023-02-28T01:23:12;6.50;99.90
25504;DHT22;13410;52.114;5.718;2023-02-28T01:25:38;6.50;99.90
25504;DHT22;13410;52.114;5.718;2023-02-28T01:28:04;6.60;99.90
25504;DHT22;13410;52.114;5.718;2023-02-28T01:30:31;6.60;99.90
25504;DHT22;13410;52.114;5.718;2023-02-28T01:32:56;6.60;99.90
25504;DHT22;13410;52.114;5.718;2023-02-28T01:35:22;6.60;99.90
25504;DHT22;13410;52.114;5.718;2023-02-28T01:37:47;6.70;99.90
25504;DHT22;13410;52.114;5.718;2023-02-28T01:40:13;6.70;99.90
25504;DHT22;13410;52.114;5.718;2023-02-28T01:42:39;6.80;99.90
25504;DHT22;13410;52.114;5.718;2023-02-28T01:45:25;6.80;99.90
25504;DHT22;13410;52.114;5.718;2023-02-28T01:47:55;6.80;99.90
25504;DHT22;13410;52.114;5.718;2023-02-28T01:50:28;6.80;99.90
25504;DHT22;13410;52.114;5.718;2023-02-28T01:52:56;6.80;99.90
25504;DHT22;13410;52.114;5.718;2023-02-28T01:55:26;7.10;99.90
25504;DHT22;13410;52.114;5.718;2023-02-28T01:57:56;6.80;99.90
25504;DHT22;13410;52.114;5.718;2023-02-28T02:00:24;6.60;99.90
25504;DHT22;13410;52.114;5.718;2023-02-28T02:02:56;6.60;99.90
25504;DHT22;13410;52.114;5.718;2023-02-28T02:05:24;6.50;99.90
25504;DHT22;13410;52.114;5.718;2023-02-28T02:08:01;6.60;99.90
25504;DHT22;13410;52.114;5.718;2023-02-28T02:10:41;6.50;99.90
25504;DHT22;13410;52.114;5.718;2023-02-28T02:18:40;6.80;99.90
25504;DHT22;13410;52.114;5.718;2023-02-28T02:21:31;6.80;99.90
25504;DHT22;13410;52.114;5.718;2023-02-28T02:24:33;6.90;99.90
25504;DHT22;13410;52.114;5.718;2023-02-28T02:27:22;6.90;99.90
25504;DHT22;13410;52.114;5.718;2023-02-28T02:32:45;6.90;99.90
25504;DHT22;13410;52.114;5.718;2023-02-28T02:40:42;7.00;99.90
25504;DHT22;13410;52.114;5.718;2023-02-28T02:43:36;7.00;99.90
25504;DHT22;13410;52.114;5.718;2023-02-28T02:46:19;7.20;99.90
25504;DHT22;13410;52.114;5.718;2023-02-28T02:48:46;7.20;99.90
25504;DHT22;13410;52.114;5.718;2023-02-28T02:51:16;7.40;99.90
25504;DHT22;13410;52.114;5.718;2023-02-28T02:53:48;7.20;99.90
25504;DHT22;13410;52.114;5.718;2023-02-28T02:56:18;7.00;99.90
25504;DHT22;13410;52.114;5.718;2023-02-28T02:58:47;7.00;99.90
25504;DHT22;13410;52.114;5.718;2023-02-28T03:01:18;7.00;99.90
25504;DHT22;13410;52.114;5.718;2023-02-28T03:03:57;7.00;99.90
25504;DHT22;13410;52.114;5.718;2023-02-28T03:06:24;7.10;99.90
25504;DHT22;13410;52.114;5.718;2023-02-28T03:08:50;6.90;99.90
25504;DHT22;13410;52.114;5.718;2023-02-28T03:11:15;7.00;99.90
25504;DHT22;13410;52.114;5.718;2023-02-28T03:20:01;7.20;99.90
25504;DHT22;13410;52.114;5.718;2023-02-28T03:22:38;7.20;99.90
25504;DHT22;13410;52.114;5.718;2023-02-28T03:33:15;7.20;99.90
25504;DHT22;13410;52.114;5.718;2023-02-28T03:36:08;7.20;99.90
25504;DHT22;13410;52.114;5.718;2023-02-28T03:38:49;7.20;99.90
25504;DHT22;13410;52.114;5.718;2023-02-28T03:41:27;7.20;99.90
25504;DHT22;13410;52.114;5.718;2023-02-28T03:43:58;7.20;99.90
25504;DHT22;13410;52.114;5.718;2023-02-28T03:46:27;7.10;99.90
25504;DHT22;13410;52.114;5.718;2023-02-28T03:48:59;7.10;99.90
25504;DHT22;13410;52.114;5.718;2023-02-28T03:51:27;7.00;99.90
25504;DHT22;13410;52.114;5.718;2023-02-28T03:53:58;6.90;99.90
25504;DHT22;13410;52.114;5.718;2023-02-28T03:56:33;6.80;99.90
25504;DHT22;13410;52.114;5.718;2023-02-28T03:59:17;6.70;99.90
25504;DHT22;13410;52.114;5.718;2023-02-28T04:01:48;6.80;99.90
25504;DHT22;13410;52.114;5.718;2023-02-28T04:04:15;6.80;99.90
25504;DHT22;13410;52.114;5.718;2023-02-28T04:06:41;6.80;99.90
25504;DHT22;13410;52.114;5.718;2023-02-28T04:09:10;6.70;99.90
25504;DHT22;13410;52.114;5.718;2023-02-28T04:11:50;6.80;99.90
25504;DHT22;13410;52.114;5.718;2023-02-28T04:14:18;6.90;99.90
25504;DHT22;13410;52.114;5.718;2023-02-28T04:16:44;6.70;99.90
25504;DHT22;13410;52.114;5.718;2023-02-28T04:19:11;6.60;99.90
25504;DHT22;13410;52.114;5.718;2023-02-28T04:21:46;6.40;99.90
25504;DHT22;13410;52.114;5.718;2023-02-28T04:24:13;6.60;99.90
25504;DHT22;13410;52.114;5.718;2023-02-28T04:26:47;6.70;99.90
25504;DHT22;13410;52.114;5.718;2023-02-28T04:29:17;6.80;99.90
25504;DHT22;13410;52.114;5.718;2023-02-28T04:31:43;6.80;99.90
25504;DHT22;13410;52.114;5.718;2023-02-28T04:34:09;6.80;99.90
25504;DHT22;13410;52.114;5.718;2023-02-28T04:36:34;6.90;99.90
25504;DHT22;13410;52.114;5.718;2023-02-28T04:39:00;6.80;99.90
25504;DHT22;13410;52.114;5.718;2023-02-28T04:41:26;6.80;99.90
25504;DHT22;13410;52.114;5.718;2023-02-28T04:43:52;6.90;99.90
25504;DHT22;13410;52.114;5.718;2023-02-28T04:46:18;7.00;99.90
25504;DHT22;13410;52.114;5.718;2023-02-28T04:48:44;6.90;99.90
25504;DHT22;13410;52.114;5.718;2023-02-28T04:51:15;6.90;99.90
25504;DHT22;13410;52.114;5.718;2023-02-28T04:53:41;7.00;99.90
25504;DHT22;13410;52.114;5.718;2023-02-28T04:56:08;7.10;99.90
25504;DHT22;13410;52.114;5.718;2023-02-28T04:58:34;7.20;99.90
25504;DHT22;13410;52.114;5.718;2023-02-28T05:01:05;7.20;99.90
25504;DHT22;13410;52.114;5.718;2023-02-28T05:03:40;7.30;99.90
25504;DHT22;13410;52.114;5.718;2023-02-28T05:06:07;7.30;99.90
25504;DHT22;13410;52.114;5.718;2023-02-28T05:08:33;7.30;99.90
25504;DHT22;13410;52.114;5.718;2023-02-28T05:10:58;7.30;99.90
25504;DHT22;13410;52.114;5.718;2023-02-28T05:13:26;7.60;99.90
25504;DHT22;13410;52.114;5.718;2023-02-28T05:15:52;7.60;99.90
25504;DHT22;13410;52.114;5.718;2023-02-28T05:18:17;7.80;99.90
25504;DHT22;13410;52.114;5.718;2023-02-28T05:20:43;7.70;99.90
25504;DHT22;13410;52.114;5.718;2023-02-28T05:23:11;7.50;99.90
25504;DHT22;13410;52.114;5.718;2023-02-28T05:25:37;7.20;99.90
25504;DHT22;13410;52.114;5.718;2023-02-28T05:28:03;7.30;99.90
25504;DHT22;13410;52.114;5.718;2023-02-28T05:30:28;7.30;99.90
25504;DHT22;13410;52.114;5.718;2023-02-28T05:32:55;7.50;99.90
25504;DHT22;13410;52.114;5.718;2023-02-28T05:35:20;7.50;99.90
25504;DHT22;13410;52.114;5.718;2023-02-28T05:37:46;7.60;99.90
25504;DHT22;13410;52.114;5.718;2023-02-28T05:40:12;7.60;99.90
25504;DHT22;13410;52.114;5.718;2023-02-28T05:42:38;7.50;99.90
25504;DHT22;13410;52.114;5.718;2023-02-28T05:45:04;7.30;99.90
25504;DHT22;13410;52.114;5.718;2023-02-28T05:47:30;7.10;99.90
25504;DHT22;13410;52.114;5.718;2023-02-28T05:49:56;7.10;99.90
25504;DHT22;13410;52.114;5.718;2023-02-28T05:52:21;6.80;99.90
25504;DHT22;13410;52.114;5.718;2023-02-28T05:54:47;7.20;99.90
25504;DHT22;13410;52.114;5.718;2023-02-28T05:57:13;7.30;99.90
25504;DHT22;13410;52.114;5.718;2023-02-28T05:59:39;7.30;99.90
25504;DHT22;13410;52.114;5.718;2023-02-28T06:02:06;7.20;99.90
25504;DHT22;13410;52.114;5.718;2023-02-28T06:04:31;7.40;99.90
25504;DHT22;13410;52.114;5.718;2023-02-28T06:06:57;7.40;99.90
25504;DHT22;13410;52.114;5.718;2023-02-28T06:09:23;7.60;99.90
25504;DHT22;13410;52.114;5.718;2023-02-28T06:11:48;7.60;99.90
25504;DHT22;13410;52.114;5.718;2023-02-28T06:14:16;7.60;99.90
25504;DHT22;13410;52.114;5.718;2023-02-28T06:16:42;7.40;99.90
25504;DHT22;13410;52.114;5.718;2023-02-28T06:19:09;7.50;99.90
25504;DHT22;13410;52.114;5.718;2023-02-28T06:21:35;7.40;99.90
25504;DHT22;13410;52.114;5.718;2023-02-28T06:24:01;7.30;99.90
25504;DHT22;13410;52.114;5.718;2023-02-28T06:26:26;7.40;99.90
25504;DHT22;13410;52.114;5.718;2023-02-28T06:28:52;7.50;99.90
25504;DHT22;13410;52.114;5.718;2023-02-28T06:31:19;7.50;99.90
25504;DHT22;13410;52.114;5.718;2023-02-28T06:33:45;7.50;99.90
25504;DHT22;13410;52.114;5.718;2023-02-28T06:36:12;7.50;99.90
25504;DHT22;13410;52.114;5.718;2023-02-28T06:38:39;7.40;99.90
25504;DHT22;13410;52.114;5.718;2023-02-28T06:41:06;7.30;99.90
25504;DHT22;13410;52.114;5.718;2023-02-28T06:43:39;7.20;99.90
25504;DHT22;13410;52.114;5.718;2023-02-28T06:46:07;7.20;99.90
25504;DHT22;13410;52.114;5.718;2023-02-28T06:48:33;7.10;99.90
25504;DHT22;13410;52.114;5.718;2023-02-28T06:51:09;7.10;99.90
25504;DHT22;13410;52.114;5.718;2023-02-28T06:53:35;7.20;99.90
25504;DHT22;13410;52.114;5.718;2023-02-28T06:56:05;7.30;99.90
25504;DHT22;13410;52.114;5.718;2023-02-28T06:58:31;7.40;99.90
25504;DHT22;13410;52.114;5.718;2023-02-28T07:00:57;7.50;99.90
25504;DHT22;13410;52.114;5.718;2023-02-28T07:03:23;7.50;99.90
25504;DHT22;13410;52.114;5.718;2023-02-28T07:05:48;7.40;99.90
25504;DHT22;13410;52.114;5.718;2023-02-28T07:08:14;7.30;99.90
25504;DHT22;13410;52.114;5.718;2023-02-28T07:10:40;7.40;99.90
25504;DHT22;13410;52.114;5.718;2023-02-28T07:13:07;7.40;99.90
25504;DHT22;13410;52.114;5.718;2023-02-28T07:15:34;7.50;99.90
25504;DHT22;13410;52.114;5.718;2023-02-28T07:17:59;7.40;99.90
25504;DHT22;13410;52.114;5.718;2023-02-28T07:20:25;7.50;99.90
25504;DHT22;13410;52.114;5.718;2023-02-28T07:22:51;7.40;99.90
25504;DHT22;13410;52.114;5.718;2023-02-28T07:25:28;7.50;99.90
25504;DHT22;13410;52.114;5.718;2023-02-28T07:27:55;7.50;99.90
25504;DHT22;13410;52.114;5.718;2023-02-28T07:30:21;7.60;99.90
25504;DHT22;13410;52.114;5.718;2023-02-28T07:32:47;7.60;99.90
25504;DHT22;13410;52.114;5.718;2023-02-28T07:35:13;7.80;99.90
25504;DHT22;13410;52.114;5.718;2023-02-28T07:37:41;7.90;99.90
25504;DHT22;13410;52.114;5.718;2023-02-28T07:40:08;8.00;99.90
25504;DHT22;13410;52.114;5.718;2023-02-28T07:42:35;8.20;99.90
25504;DHT22;13410;52.114;5.718;2023-02-28T07:45:01;8.20;99.90
25504;DHT22;13410;52.114;5.718;2023-02-28T07:47:29;8.40;99.90
25504;DHT22;13410;52.114;5.718;2023-02-28T07:49:55;8.30;99.90
25504;DHT22;13410;52.114;5.718;2023-02-28T07:52:21;8.40;99.90
25504;DHT22;13410;52.114;5.718;2023-02-28T07:54:48;8.30;99.90
25504;DHT22;13410;52.114;5.718;2023-02-28T07:57:14;8.30;99.90
25504;DHT22;13410;52.114;5.718;2023-02-28T07:59:39;8.30;99.90
25504;DHT22;13410;52.114;5.718;2023-02-28T08:02:05;8.40;99.90
25504;DHT22;13410;52.114;5.718;2023-02-28T08:04:32;8.40;99.90
25504;DHT22;13410;52.114;5.718;2023-02-28T08:06:58;8.40;99.90
25504;DHT22;13410;52.114;5.718;2023-02-28T08:09:24;8.40;99.90
25504;DHT22;13410;52.114;5.718;2023-02-28T08:11:49;8.40;99.90
25504;DHT22;13410;52.114;5.718;2023-02-28T08:14:15;8.50;99.90
25504;DHT22;13410;52.114;5.718;2023-02-28T08:16:41;8.40;99.90
25504;DHT22;13410;52.114;5.718;2023-02-28T08:19:08;8.60;99.90
25504;DHT22;13410;52.114;5.718;2023-02-28T08:21:34;8.90;99.90
25504;DHT22;13410;52.114;5.718;2023-02-28T08:24:00;9.10;99.90
25504;DHT22;13410;52.114;5.718;2023-02-28T08:26:25;9.40;99.90
25504;DHT22;13410;52.114;5.718;2023-02-28T08:28:51;9.50;99.90
25504;DHT22;13410;52.114;5.718;2023-02-28T08:31:17;9.60;99.90
25504;DHT22;13410;52.114;5.718;2023-02-28T08:33:43;9.80;99.90
25504;DHT22;13410;52.114;5.718;2023-02-28T08:36:10;9.50;99.90
25504;DHT22;13410;52.114;5.718;2023-02-28T08:38:37;9.40;99.90
25504;DHT22;13410;52.114;5.718;2023-02-28T08:41:06;9.30;99.90
25504;DHT22;13410;52.114;5.718;2023-02-28T08:43:33;9.10;99.90
25504;DHT22;13410;52.114;5.718;2023-02-28T08:45:59;8.90;99.90
25504;DHT22;13410;52.114;5.718;2023-02-28T08:48:26;8.90;99.90
25504;DHT22;13410;52.114;5.718;2023-02-28T08:51:00;8.50;99.90
25504;DHT22;13410;52.114;5.718;2023-02-28T08:53:26;8.40;99.90
25504;DHT22;13410;52.114;5.718;2023-02-28T08:56:00;8.30;99.90
25504;DHT22;13410;52.114;5.718;2023-02-28T08:58:25;8.10;99.90
25504;DHT22;13410;52.114;5.718;2023-02-28T09:00:51;8.00;99.90
25504;DHT22;13410;52.114;5.718;2023-02-28T09:03:17;8.30;99.90
25504;DHT22;13410;52.114;5.718;2023-02-28T09:06:13;8.40;99.90
25504;DHT22;13410;52.114;5.718;2023-02-28T09:08:39;8.30;99.90
25504;DHT22;13410;52.114;5.718;2023-02-28T09:11:05;8.40;99.90
25504;DHT22;13410;52.114;5.718;2023-02-28T09:13:31;8.40;99.90
25504;DHT22;13410;52.114;5.718;2023-02-28T09:15:58;8.20;99.90
25504;DHT22;13410;52.114;5.718;2023-02-28T09:18:24;8.30;99.90
25504;DHT22;13410;52.114;5.718;2023-02-28T09:20:50;8.30;99.90
25504;DHT22;13410;52.114;5.718;2023-02-28T09:23:16;8.40;99.90
25504;DHT22;13410;52.114;5.718;2023-02-28T09:25:53;8.40;99.90
25504;DHT22;13410;52.114;5.718;2023-02-28T09:28:19;8.50;99.90
25504;DHT22;13410;52.114;5.718;2023-02-28T09:30:49;8.70;99.90
25504;DHT22;13410;52.114;5.718;2023-02-28T09:33:16;8.70;99.90
25504;DHT22;13410;52.114;5.718;2023-02-28T09:35:42;8.60;99.90
25504;DHT22;13410;52.114;5.718;2023-02-28T09:38:09;8.90;99.90
25504;DHT22;13410;52.114;5.718;2023-02-28T09:43:11;8.70;99.90
25504;DHT22;13410;52.114;5.718;2023-02-28T09:45:40;8.60;99.90
25504;DHT22;13410;52.114;5.718;2023-02-28T09:48:14;8.50;99.90
25504;DHT22;13410;52.114;5.718;2023-02-28T09:50:48;8.30;99.90
25504;DHT22;13410;52.114;5.718;2023-02-28T09:53:31;8.40;99.90
25504;DHT22;13410;52.114;5.718;2023-02-28T09:56:03;8.30;99.90
25504;DHT22;13410;52.114;5.718;2023-02-28T09:58:54;8.30;99.90
25504;DHT22;13410;52.114;5.718;2023-02-28T10:04:25;8.20;99.90
25504;DHT22;13410;52.114;5.718;2023-02-28T10:06:54;8.30;99.90
25504;DHT22;13410;52.114;5.718;2023-02-28T10:09:22;8.20;99.90
25504;DHT22;13410;52.114;5.718;2023-02-28T10:11:50;8.20;99.90
25504;DHT22;13410;52.114;5.718;2023-02-28T10:14:23;8.20;99.90
25504;DHT22;13410;52.114;5.718;2023-02-28T10:16:59;8.20;99.90
25504;DHT22;13410;52.114;5.718;2023-02-28T10:19:35;8.20;99.90
25504;DHT22;13410;52.114;5.718;2023-02-28T10:22:20;8.40;99.90
25504;DHT22;13410;52.114;5.718;2023-02-28T10:24:53;8.60;99.90
25504;DHT22;13410;52.114;5.718;2023-02-28T10:27:20;8.80;99.90
25504;DHT22;13410;52.114;5.718;2023-02-28T10:29:54;8.80;99.90
25504;DHT22;13410;52.114;5.718;2023-02-28T10:32:34;8.90;99.90
25504;DHT22;13410;52.114;5.718;2023-02-28T10:35:21;8.90;99.90
25504;DHT22;13410;52.114;5.718;2023-02-28T10:37:54;8.60;99.90
25504;DHT22;13410;52.114;5.718;2023-02-28T10:43:05;8.90;99.90
25504;DHT22;13410;52.114;5.718;2023-02-28T10:45:33;8.90;99.90
25504;DHT22;13410;52.114;5.718;2023-02-28T10:48:26;8.90;99.90
25504;DHT22;13410;52.114;5.718;2023-02-28T10:50:54;9.10;99.90
25504;DHT22;13410;52.114;5.718;2023-02-28T11:01:41;9.30;99.90
25504;DHT22;13410;52.114;5.718;2023-02-28T11:07:06;9.10;99.90
25504;DHT22;13410;52.114;5.718;2023-02-28T11:09:40;9.10;99.90
25504;DHT22;13410;52.114;5.718;2023-02-28T11:12:28;8.90;99.90
25504;DHT22;13410;52.114;5.718;2023-02-28T11:14:57;9.00;99.90
25504;DHT22;13410;52.114;5.718;2023-02-28T11:17:28;9.00;99.90
25504;DHT22;13410;52.114;5.718;2023-02-28T11:19:57;9.20;99.90
25504;DHT22;13410;52.114;5.718;2023-02-28T11:22:27;9.20;99.90
25504;DHT22;13410;52.114;5.718;2023-02-28T11:25:00;9.00;99.90
25504;DHT22;13410;52.114;5.718;2023-02-28T11:29:56;9.20;99.90
25504;DHT22;13410;52.114;5.718;2023-02-28T11:32:24;9.30;99.90
25504;DHT22;13410;52.114;5.718;2023-02-28T11:37:38;9.40;99.90
25504;DHT22;13410;52.114;5.718;2023-02-28T11:40:23;9.20;99.90
25504;DHT22;13410;52.114;5.718;2023-02-28T11:45:49;8.80;99.90
25504;DHT22;13410;52.114;5.718;2023-02-28T11:48:36;8.90;99.90
25504;DHT22;13410;52.114;5.718;2023-02-28T11:51:22;9.00;99.90
25504;DHT22;13410;52.114;5.718;2023-02-28T11:56:44;8.90;99.90
25504;DHT22;13410;52.114;5.718;2023-02-28T12:02:25;9.10;99.90
25504;DHT22;13410;52.114;5.718;2023-02-28T12:10:30;9.40;99.90
25504;DHT22;13410;52.114;5.718;2023-02-28T12:16:12;9.50;99.90
25504;DHT22;13410;52.114;5.718;2023-02-28T12:27:09;9.70;99.90
25504;DHT22;13410;52.114;5.718;2023-02-28T12:29:53;9.60;99.90
25504;DHT22;13410;52.114;5.718;2023-02-28T12:32:35;9.70;99.90
25504;DHT22;13410;52.114;5.718;2023-02-28T12:35:23;9.60;99.90
25504;DHT22;13410;52.114;5.718;2023-02-28T12:37:51;9.90;99.90
25504;DHT22;13410;52.114;5.718;2023-02-28T12:40:27;9.90;99.90
25504;DHT22;13410;52.114;5.718;2023-02-28T12:43:04;10.00;99.90
25504;DHT22;13410;52.114;5.718;2023-02-28T12:48:14;9.40;99.90
25504;DHT22;13410;52.114;5.718;2023-02-28T12:50:42;9.50;99.90
25504;DHT22;13410;52.114;5.718;2023-02-28T12:53:28;9.70;99.90
25504;DHT22;13410;52.114;5.718;2023-02-28T12:58:57;9.70;99.90
25504;DHT22;13410;52.114;5.718;2023-02-28T13:01:47;10.00;99.90
25504;DHT22;13410;52.114;5.718;2023-02-28T13:04:50;10.10;99.90
25504;DHT22;13410;52.114;5.718;2023-02-28T13:07:33;10.20;99.90
25504;DHT22;13410;52.114;5.718;2023-02-28T13:10:04;10.40;99.90
25504;DHT22;13410;52.114;5.718;2023-02-28T13:12:31;10.30;99.90
25504;DHT22;13410;52.114;5.718;2023-02-28T13:15:08;10.40;99.90
25504;DHT22;13410;52.114;5.718;2023-02-28T13:17:39;10.10;99.90
25504;DHT22;13410;52.114;5.718;2023-02-28T13:20:16;10.10;99.90
25504;DHT22;13410;52.114;5.718;2023-02-28T13:22:44;10.20;99.90
25504;DHT22;13410;52.114;5.718;2023-02-28T13:28:00;9.90;99.90
25504;DHT22;13410;52.114;5.718;2023-02-28T13:33:37;9.80;99.90
25504;DHT22;13410;52.114;5.718;2023-02-28T13:36:26;9.60;99.90
25504;DHT22;13410;52.114;5.718;2023-02-28T13:38:59;9.80;99.90
25504;DHT22;13410;52.114;5.718;2023-02-28T13:46:29;10.00;99.90
25504;DHT22;13410;52.114;5.718;2023-02-28T13:48:54;9.80;99.90
25504;DHT22;13410;52.114;5.718;2023-02-28T13:51:43;9.90;99.90
25504;DHT22;13410;52.114;5.718;2023-02-28T13:54:34;9.90;99.90
25504;DHT22;13410;52.114;5.718;2023-02-28T14:05:31;10.00;99.90
25504;DHT22;13410;52.114;5.718;2023-02-28T14:08:03;10.10;99.90
25504;DHT22;13410;52.114;5.718;2023-02-28T14:10:31;10.20;99.90
25504;DHT22;13410;52.114;5.718;2023-02-28T14:12:59;10.20;99.90
25504;DHT22;13410;52.114;5.718;2023-02-28T14:18:25;10.10;99.90
25504;DHT22;13410;52.114;5.718;2023-02-28T14:20:57;9.90;99.90
25504;DHT22;13410;52.114;5.718;2023-02-28T14:23:31;9.90;99.90
25504;DHT22;13410;52.114;5.718;2023-02-28T14:26:32;9.90;99.90
25504;DHT22;13410;52.114;5.718;2023-02-28T14:31:47;10.00;99.90
25504;DHT22;13410;52.114;5.718;2023-02-28T14:34:37;10.10;99.90
25504;DHT22;13410;52.114;5.718;2023-02-28T14:37:09;10.20;99.90
25504;DHT22;13410;52.114;5.718;2023-02-28T14:39:36;10.20;99.90
25504;DHT22;13410;52.114;5.718;2023-02-28T14:42:02;10.10;99.90
25504;DHT22;13410;52.114;5.718;2023-02-28T14:44:30;10.00;99.90
25504;DHT22;13410;52.114;5.718;2023-02-28T14:47:00;10.10;99.90
25504;DHT22;13410;52.114;5.718;2023-02-28T14:49:35;10.00;99.90
25504;DHT22;13410;52.114;5.718;2023-02-28T14:52:27;10.30;99.90
25504;DHT22;13410;52.114;5.718;2023-02-28T14:55:15;10.40;99.90
25504;DHT22;13410;52.114;5.718;2023-02-28T14:58:02;10.50;99.90
25504;DHT22;13410;52.114;5.718;2023-02-28T15:00:30;10.50;99.90
25504;DHT22;13410;52.114;5.718;2023-02-28T15:02:58;10.60;99.90
25504;DHT22;13410;52.114;5.718;2023-02-28T15:08:11;10.50;99.90
25504;DHT22;13410;52.114;5.718;2023-02-28T15:10:40;10.40;99.90
25504;DHT22;13410;52.114;5.718;2023-02-28T15:13:13;10.40;99.90
25504;DHT22;13410;52.114;5.718;2023-02-28T15:15:52;10.50;99.90
25504;DHT22;13410;52.114;5.718;2023-02-28T15:20:59;10.50;99.90
25504;DHT22;13410;52.114;5.718;2023-02-28T15:23:27;10.50;99.90
25504;DHT22;13410;52.114;5.718;2023-02-28T15:25:53;10.50;99.90
25504;DHT22;13410;52.114;5.718;2023-02-28T15:28:21;10.50;99.90
25504;DHT22;13410;52.114;5.718;2023-02-28T15:30:59;10.40;99.90
25504;DHT22;13410;52.114;5.718;2023-02-28T15:33:27;10.30;99.90
25504;DHT22;13410;52.114;5.718;2023-02-28T15:36:07;10.40;99.90
25504;DHT22;13410;52.114;5.718;2023-02-28T15:38:36;10.50;99.90
25504;DHT22;13410;52.114;5.718;2023-02-28T15:41:02;10.30;99.90
25504;DHT22;13410;52.114;5.718;2023-02-28T15:43:38;10.10;99.90
25504;DHT22;13410;52.114;5.718;2023-02-28T15:46:12;10.20;99.90
25504;DHT22;13410;52.114;5.718;2023-02-28T15:48:54;10.10;99.90
25504;DHT22;13410;52.114;5.718;2023-02-28T15:51:26;10.20;99.90
25504;DHT22;13410;52.114;5.718;2023-02-28T15:53:57;10.00;99.90
25504;DHT22;13410;52.114;5.718;2023-02-28T15:56:28;9.80;99.90
25504;DHT22;13410;52.114;5.718;2023-02-28T15:59:03;9.70;99.90
25504;DHT22;13410;52.114;5.718;2023-02-28T16:01:32;9.60;99.90
25504;DHT22;13410;52.114;5.718;2023-02-28T16:04:11;9.40;99.90
25504;DHT22;13410;52.114;5.718;2023-02-28T16:06:44;9.40;99.90
25504;DHT22;13410;52.114;5.718;2023-02-28T16:09:12;9.30;99.90
25504;DHT22;13410;52.114;5.718;2023-02-28T16:11:42;9.30;99.90
25504;DHT22;13410;52.114;5.718;2023-02-28T16:14:13;9.30;99.90
25504;DHT22;13410;52.114;5.718;2023-02-28T16:16:43;9.50;99.90
25504;DHT22;13410;52.114;5.718;2023-02-28T16:19:09;9.50;99.90
25504;DHT22;13410;52.114;5.718;2023-02-28T16:21:35;9.60;99.90
25504;DHT22;13410;52.114;5.718;2023-02-28T16:24:00;9.60;99.90
25504;DHT22;13410;52.114;5.718;2023-02-28T16:26:26;9.50;99.90
25504;DHT22;13410;52.114;5.718;2023-02-28T16:28:53;9.50;99.90
25504;DHT22;13410;52.114;5.718;2023-02-28T16:31:19;9.60;99.90
25504;DHT22;13410;52.114;5.718;2023-02-28T16:33:45;9.60;99.90
25504;DHT22;13410;52.114;5.718;2023-02-28T16:36:20;9.70;99.90
25504;DHT22;13410;52.114;5.718;2023-02-28T16:38:46;9.70;99.90
25504;DHT22;13410;52.114;5.718;2023-02-28T16:41:20;9.80;99.90
25504;DHT22;13410;52.114;5.718;2023-02-28T16:43:48;9.80;99.90
25504;DHT22;13410;52.114;5.718;2023-02-28T16:46:14;9.80;99.90
25504;DHT22;13410;52.114;5.718;2023-02-28T16:48:42;9.70;99.90
25504;DHT22;13410;52.114;5.718;2023-02-28T16:51:15;9.70;99.90
25504;DHT22;13410;52.114;5.718;2023-02-28T16:53:41;9.70;99.90
25504;DHT22;13410;52.114;5.718;2023-02-28T16:56:17;9.70;99.90
25504;DHT22;13410;52.114;5.718;2023-02-28T16:58:44;9.50;99.90
25504;DHT22;13410;52.114;5.718;2023-02-28T17:01:09;9.50;99.90
25504;DHT22;13410;52.114;5.718;2023-02-28T17:03:35;9.50;99.90
25504;DHT22;13410;52.114;5.718;2023-02-28T17:06:02;9.50;99.90
25504;DHT22;13410;52.114;5.718;2023-02-28T17:08:28;9.60;99.90
25504;DHT22;13410;52.114;5.718;2023-02-28T17:10:55;9.60;99.90
25504;DHT22;13410;52.114;5.718;2023-02-28T17:13:20;9.60;99.90
25504;DHT22;13410;52.114;5.718;2023-02-28T17:15:46;9.60;99.90
25504;DHT22;13410;52.114;5.718;2023-02-28T17:18:15;9.60;99.90
25504;DHT22;13410;52.114;5.718;2023-02-28T17:20:44;9.60;99.90
25504;DHT22;13410;52.114;5.718;2023-02-28T17:23:11;9.50;99.90
25504;DHT22;13410;52.114;5.718;2023-02-28T17:25:37;9.50;99.90
25504;DHT22;13410;52.114;5.718;2023-02-28T17:28:02;9.60;99.90
25504;DHT22;13410;52.114;5.718;2023-02-28T17:30:28;9.60;99.90
25504;DHT22;13410;52.114;5.718;2023-02-28T17:32:57;9.50;99.90
25504;DHT22;13410;52.114;5.718;2023-02-28T17:35:23;9.50;99.90
25504;DHT22;13410;52.114;5.718;2023-02-28T17:37:49;9.40;99.90
25504;DHT22;13410;52.114;5.718;2023-02-28T17:40:17;9.30;99.90
25504;DHT22;13410;52.114;5.718;2023-02-28T17:42:44;9.20;99.90
25504;DHT22;13410;52.114;5.718;2023-02-28T17:45:10;9.10;99.90
25504;DHT22;13410;52.114;5.718;2023-02-28T17:47:36;8.90;99.90
25504;DHT22;13410;52.114;5.718;2023-02-28T17:50:02;8.80;99.90
25504;DHT22;13410;52.114;5.718;2023-02-28T17:52:27;8.70;99.90
25504;DHT22;13410;52.114;5.718;2023-02-28T17:54:54;8.80;99.90
25504;DHT22;13410;52.114;5.718;2023-02-28T17:57:20;8.70;99.90